METAR TAF

[Source: ADDS]
METAR
LFCR 100600Z AUTO 17003KT CAVOK 21/14 Q1016 NOSIG =
LFCR 100500Z 1006/1106 11005KT CAVOK BECMG 1013/1015 FEW060CB PROB30 TEMPO 1016/1020 14020G30KT TSRA SCT045CB PROB30 TEMPO 1016/1018 TSRAGR BECMG 1100/1102 CAVOK LFBA 100600Z AUTO 18004KT CAVOK 22/19 Q1013 TEMPO BKN004 SCT100TCU =
LFBA 100500Z 1006/1015 VRB04KT CAVOK TEMPO 1006/1008 BKN004 SCT100TCU TEMPO 1010/1015 SCT110TCU LFSL 100600Z AUTO 15004KT 120V180 CAVOK 25/16 Q1013 NOSIG =
LFSL 100500Z 1006/1015 VRB03KT CAVOK LFLW 100530Z AUTO 09007KT CAVOK 19/15 Q1016 NOSIG =
LFLW 100500Z 1006/1015 10008KT CAVOK
TAF
LFCR 100500Z 1006/1106 11005KT CAVOK BECMG 1013/1015 FEW060CB PROB30 TEMPO 1016/1020 14020G30KT TSRA SCT045CB PROB30 TEMPO 1016/1018 TSRAGR BECMG 1100/1102 CAVOK =
LFBA 100500Z 1006/1015 VRB04KT CAVOK TEMPO 1006/1008 BKN004 SCT100TCU TEMPO 1010/1015 SCT110TCU =
LFSL 100500Z 1006/1015 VRB03KT CAVOK =
LFLW 100500Z 1006/1015 10008KT CAVOK =
SR / SS: 04:52 / 19:06 UTC (LFCC 2020-08-10)